sensor_id;sensor_type;location;lat;lon;timestamp;pressure;altitude;pressure_sealevel;temperature;humidity
3132;BME280;62090;52.330;9.104;2023-08-01T00:00:15;99269.88;;;18.11;100.00
3132;BME280;62090;52.330;9.104;2023-08-01T00:02:46;99314.75;;;18.33;100.00
3132;BME280;62090;52.330;9.104;2023-08-01T00:05:19;99302.59;;;18.37;100.00
3132;BME280;62090;52.330;9.104;2023-08-01T00:07:48;99315.13;;;18.49;100.00
3132;BME280;62090;52.330;9.104;2023-08-01T00:10:18;99302.28;;;18.47;100.00
3132;BME280;62090;52.330;9.104;2023-08-01T00:12:48;99303.81;;;18.54;100.00
3132;BME280;62090;52.330;9.104;2023-08-01T00:15:18;99276.66;;;18.41;100.00
3132;BME280;62090;52.330;9.104;2023-08-01T00:17:48;99300.41;;;18.52;100.00
3132;BME280;62090;52.330;9.104;2023-08-01T00:20:21;99276.34;;;18.52;100.00
3132;BME280;62090;52.330;9.104;2023-08-01T00:22:51;99288.47;;;18.50;100.00
3132;BME280;62090;52.330;9.104;2023-08-01T00:25:21;99284.03;;;18.55;100.00
3132;BME280;62090;52.330;9.104;2023-08-01T00:27:50;99247.38;;;18.44;100.00
3132;BME280;62090;52.330;9.104;2023-08-01T00:30:20;99222.13;;;18.26;100.00
3132;BME280;62090;52.330;9.104;2023-08-01T00:32:51;99252.56;;;18.42;100.00
3132;BME280;62090;52.330;9.104;2023-08-01T00:35:23;99273.44;;;18.63;100.00
3132;BME280;62090;52.330;9.104;2023-08-01T00:37:53;99273.41;;;18.64;100.00
3132;BME280;62090;52.330;9.104;2023-08-01T00:40:23;99262.13;;;18.67;100.00
3132;BME280;62090;52.330;9.104;2023-08-01T00:42:53;99261.16;;;18.71;100.00
3132;BME280;62090;52.330;9.104;2023-08-01T00:45:23;99255.81;;;18.77;100.00
3132;BME280;62090;52.330;9.104;2023-08-01T00:47:54;99256.09;;;18.68;100.00
3132;BME280;62090;52.330;9.104;2023-08-01T00:50:27;99243.19;;;18.68;100.00
3132;BME280;62090;52.330;9.104;2023-08-01T00:52:57;99221.38;;;18.50;100.00
3132;BME280;62090;52.330;9.104;2023-08-01T00:55:27;99207.22;;;18.35;100.00
3132;BME280;62090;52.330;9.104;2023-08-01T00:57:58;99228.66;;;18.37;100.00
3132;BME280;62090;52.330;9.104;2023-08-01T01:00:29;99242.06;;;18.48;100.00
3132;BME280;62090;52.330;9.104;2023-08-01T01:03:01;99241.06;;;18.52;100.00
3132;BME280;62090;52.330;9.104;2023-08-01T01:05:36;99190.63;;;18.18;100.00
3132;BME280;62090;52.330;9.104;2023-08-01T01:08:08;99251.72;;;18.42;100.00
3132;BME280;62090;52.330;9.104;2023-08-01T01:10:38;99216.00;;;18.30;100.00
3132;BME280;62090;52.330;9.104;2023-08-01T01:13:08;99241.75;;;18.31;100.00
3132;BME280;62090;52.330;9.104;2023-08-01T01:15:38;99171.75;;;17.88;100.00
3132;BME280;62090;52.330;9.104;2023-08-01T01:18:08;99238.00;;;18.13;100.00
3132;BME280;62090;52.330;9.104;2023-08-01T01:20:41;99248.56;;;18.34;100.00
3132;BME280;62090;52.330;9.104;2023-08-01T01:23:11;99238.88;;;18.40;100.00
3132;BME280;62090;52.330;9.104;2023-08-01T01:25:41;99230.06;;;18.47;100.00
3132;BME280;62090;52.330;9.104;2023-08-01T01:28:12;99224.09;;;18.45;100.00
3132;BME280;62090;52.330;9.104;2023-08-01T01:30:43;99193.56;;;18.33;100.00
3132;BME280;62090;52.330;9.104;2023-08-01T01:33:13;99214.19;;;18.33;100.00
3132;BME280;62090;52.330;9.104;2023-08-01T01:35:46;99191.13;;;18.29;100.00
3132;BME280;62090;52.330;9.104;2023-08-01T01:38:17;99208.69;;;18.44;100.00
3132;BME280;62090;52.330;9.104;2023-08-01T01:40:47;99171.31;;;18.03;100.00
3132;BME280;62090;52.330;9.104;2023-08-01T01:43:16;99201.63;;;18.23;100.00
3132;BME280;62090;52.330;9.104;2023-08-01T01:45:47;99193.53;;;18.07;100.00
3132;BME280;62090;52.330;9.104;2023-08-01T01:48:16;99192.16;;;17.95;100.00
3132;BME280;62090;52.330;9.104;2023-08-01T01:50:49;99167.78;;;17.78;100.00
3132;BME280;62090;52.330;9.104;2023-08-01T01:53:19;99188.22;;;17.84;100.00
3132;BME280;62090;52.330;9.104;2023-08-01T01:55:49;99187.53;;;17.77;100.00
3132;BME280;62090;52.330;9.104;2023-08-01T01:58:19;99189.38;;;17.73;100.00
3132;BME280;62090;52.330;9.104;2023-08-01T02:00:49;99154.94;;;17.47;100.00
3132;BME280;62090;52.330;9.104;2023-08-01T02:03:19;99174.81;;;17.72;100.00
3132;BME280;62090;52.330;9.104;2023-08-01T02:05:51;99175.81;;;17.67;100.00
3132;BME280;62090;52.330;9.104;2023-08-01T02:08:22;99170.75;;;17.65;100.00
3132;BME280;62090;52.330;9.104;2023-08-01T02:10:51;99158.78;;;17.63;100.00
3132;BME280;62090;52.330;9.104;2023-08-01T02:13:22;99159.31;;;17.74;100.00
3132;BME280;62090;52.330;9.104;2023-08-01T02:15:52;99156.41;;;17.85;100.00
3132;BME280;62090;52.330;9.104;2023-08-01T02:18:22;99161.78;;;17.77;100.00
3132;BME280;62090;52.330;9.104;2023-08-01T02:20:55;99162.06;;;17.68;100.00
3132;BME280;62090;52.330;9.104;2023-08-01T02:23:25;99162.00;;;17.71;100.00
3132;BME280;62090;52.330;9.104;2023-08-01T02:25:55;99154.56;;;17.60;100.00
3132;BME280;62090;52.330;9.104;2023-08-01T02:28:25;99150.25;;;17.61;100.00
3132;BME280;62090;52.330;9.104;2023-08-01T02:30:55;99151.28;;;17.54;100.00
3132;BME280;62090;52.330;9.104;2023-08-01T02:33:25;99142.00;;;17.48;100.00
3132;BME280;62090;52.330;9.104;2023-08-01T02:35:58;99144.16;;;17.63;100.00
3132;BME280;62090;52.330;9.104;2023-08-01T02:38:28;99084.84;;;17.37;100.00
3132;BME280;62090;52.330;9.104;2023-08-01T02:40:57;99085.50;;;17.44;100.00
3132;BME280;62090;52.330;9.104;2023-08-01T02:43:27;99123.78;;;17.84;100.00
3132;BME280;62090;52.330;9.104;2023-08-01T02:45:57;99108.47;;;17.79;100.00
3132;BME280;62090;52.330;9.104;2023-08-01T02:48:28;99080.59;;;17.65;100.00
3132;BME280;62090;52.330;9.104;2023-08-01T02:51:02;99085.44;;;17.75;100.00
3132;BME280;62090;52.330;9.104;2023-08-01T02:53:31;99105.44;;;17.93;100.00
3132;BME280;62090;52.330;9.104;2023-08-01T02:56:01;99105.69;;;17.87;100.00
3132;BME280;62090;52.330;9.104;2023-08-01T02:58:34;99111.84;;;17.81;100.00
3132;BME280;62090;52.330;9.104;2023-08-01T03:01:06;99113.34;;;17.88;100.00
3132;BME280;62090;52.330;9.104;2023-08-01T03:03:37;99102.41;;;17.82;100.00
3132;BME280;62090;52.330;9.104;2023-08-01T03:06:11;99100.63;;;17.82;100.00
3132;BME280;62090;52.330;9.104;2023-08-01T03:08:41;99113.34;;;17.88;100.00
3132;BME280;62090;52.330;9.104;2023-08-01T03:11:11;99065.41;;;17.55;100.00
3132;BME280;62090;52.330;9.104;2023-08-01T03:13:41;99107.06;;;17.69;100.00
3132;BME280;62090;52.330;9.104;2023-08-01T03:16:11;99092.03;;;17.83;100.00
3132;BME280;62090;52.330;9.104;2023-08-01T03:18:41;99086.28;;;17.75;100.00
3132;BME280;62090;52.330;9.104;2023-08-01T03:21:13;99097.44;;;17.76;100.00
3132;BME280;62090;52.330;9.104;2023-08-01T03:23:43;99092.03;;;17.83;100.00
3132;BME280;62090;52.330;9.104;2023-08-01T03:26:13;99088.53;;;17.86;100.00
3132;BME280;62090;52.330;9.104;2023-08-01T03:28:45;99058.78;;;17.76;100.00
3132;BME280;62090;52.330;9.104;2023-08-01T03:31:15;99058.16;;;17.67;100.00
3132;BME280;62090;52.330;9.104;2023-08-01T03:33:44;99072.00;;;17.65;100.00
3132;BME280;62090;52.330;9.104;2023-08-01T03:36:17;99093.91;;;17.78;100.00
3132;BME280;62090;52.330;9.104;2023-08-01T03:38:47;99101.81;;;17.72;100.00
3132;BME280;62090;52.330;9.104;2023-08-01T03:41:17;99087.66;;;17.57;100.00
3132;BME280;62090;52.330;9.104;2023-08-01T03:43:47;99114.66;;;17.73;100.00
3132;BME280;62090;52.330;9.104;2023-08-01T03:46:17;99106.78;;;17.78;100.00
3132;BME280;62090;52.330;9.104;2023-08-01T03:48:48;99109.19;;;17.84;100.00
3132;BME280;62090;52.330;9.104;2023-08-01T03:51:20;99094.59;;;17.83;100.00
3132;BME280;62090;52.330;9.104;2023-08-01T03:53:51;99110.13;;;17.82;100.00
3132;BME280;62090;52.330;9.104;2023-08-01T03:56:38;99099.94;;;17.77;100.00
3132;BME280;62090;52.330;9.104;2023-08-01T03:59:11;99093.34;;;17.68;100.00
3132;BME280;62090;52.330;9.104;2023-08-01T04:01:41;99113.16;;;17.66;100.00
3132;BME280;62090;52.330;9.104;2023-08-01T04:04:11;99104.41;;;17.72;100.00
3132;BME280;62090;52.330;9.104;2023-08-01T04:06:43;99106.91;;;17.75;100.00
3132;BME280;62090;52.330;9.104;2023-08-01T04:09:13;99076.66;;;17.52;100.00
3132;BME280;62090;52.330;9.104;2023-08-01T04:11:43;99104.47;;;17.70;100.00
3132;BME280;62090;52.330;9.104;2023-08-01T04:14:13;99109.22;;;17.83;100.00
3132;BME280;62090;52.330;9.104;2023-08-01T04:16:43;99104.03;;;17.84;100.00
3132;BME280;62090;52.330;9.104;2023-08-01T04:19:13;99074.25;;;17.76;100.00
3132;BME280;62090;52.330;9.104;2023-08-01T04:21:49;99095.16;;;17.93;100.00
3132;BME280;62090;52.330;9.104;2023-08-01T04:24:19;99103.72;;;17.93;100.00
3132;BME280;62090;52.330;9.104;2023-08-01T04:26:52;99101.09;;;17.95;100.00
3132;BME280;62090;52.330;9.104;2023-08-01T04:29:22;99073.31;;;17.77;100.00
3132;BME280;62090;52.330;9.104;2023-08-01T04:31:52;99091.59;;;17.97;100.00
3132;BME280;62090;52.330;9.104;2023-08-01T04:34:21;99106.03;;;18.02;100.00
3132;BME280;62090;52.330;9.104;2023-08-01T04:36:54;99077.00;;;17.97;100.00
3132;BME280;62090;52.330;9.104;2023-08-01T04:39:24;99094.56;;;18.11;100.00
3132;BME280;62090;52.330;9.104;2023-08-01T04:41:54;99086.84;;;18.11;100.00
3132;BME280;62090;52.330;9.104;2023-08-01T04:44:24;99098.53;;;18.21;100.00
3132;BME280;62090;52.330;9.104;2023-08-01T04:46:53;99073.06;;;18.12;100.00
3132;BME280;62090;52.330;9.104;2023-08-01T04:49:23;99090.78;;;18.21;100.00
3132;BME280;62090;52.330;9.104;2023-08-01T04:51:56;99090.06;;;18.18;100.00
3132;BME280;62090;52.330;9.104;2023-08-01T04:54:27;99075.44;;;17.92;100.00
3132;BME280;62090;52.330;9.104;2023-08-01T04:56:57;99101.09;;;18.21;100.00
3132;BME280;62090;52.330;9.104;2023-08-01T04:59:26;99080.19;;;18.04;100.00
3132;BME280;62090;52.330;9.104;2023-08-01T05:01:56;99102.97;;;18.18;100.00
3132;BME280;62090;52.330;9.104;2023-08-01T05:04:27;99109.13;;;18.13;100.00
3132;BME280;62090;52.330;9.104;2023-08-01T05:06:59;99092.03;;;18.09;100.00
3132;BME280;62090;52.330;9.104;2023-08-01T05:09:29;99113.81;;;18.01;100.00
3132;BME280;62090;52.330;9.104;2023-08-01T05:11:59;99112.47;;;18.15;100.00
3132;BME280;62090;52.330;9.104;2023-08-01T05:14:29;99130.34;;;18.20;100.00
3132;BME280;62090;52.330;9.104;2023-08-01T05:16:58;99116.56;;;18.21;100.00
3132;BME280;62090;52.330;9.104;2023-08-01T05:19:28;99103.03;;;18.14;100.00
3132;BME280;62090;52.330;9.104;2023-08-01T05:22:01;99108.03;;;18.19;100.00
3132;BME280;62090;52.330;9.104;2023-08-01T05:24:31;99119.03;;;18.24;100.00
3132;BME280;62090;52.330;9.104;2023-08-01T05:27:01;99108.97;;;18.18;100.00
3132;BME280;62090;52.330;9.104;2023-08-01T05:29:31;99077.81;;;17.98;100.00
3132;BME280;62090;52.330;9.104;2023-08-01T05:32:01;99053.47;;;17.80;100.00
3132;BME280;62090;52.330;9.104;2023-08-01T05:34:32;99091.31;;;18.06;100.00
3132;BME280;62090;52.330;9.104;2023-08-01T05:37:05;99090.25;;;18.11;100.00
3132;BME280;62090;52.330;9.104;2023-08-01T05:39:35;99103.09;;;18.13;100.00
3132;BME280;62090;52.330;9.104;2023-08-01T05:42:06;99113.19;;;18.19;100.00
3132;BME280;62090;52.330;9.104;2023-08-01T05:44:36;99116.38;;;18.27;100.00
3132;BME280;62090;52.330;9.104;2023-08-01T05:47:06;99109.97;;;18.39;100.00
3132;BME280;62090;52.330;9.104;2023-08-01T05:49:36;99110.59;;;18.45;100.00
3132;BME280;62090;52.330;9.104;2023-08-01T05:52:10;99112.19;;;18.49;100.00
3132;BME280;62090;52.330;9.104;2023-08-01T05:54:40;99111.91;;;18.59;100.00
3132;BME280;62090;52.330;9.104;2023-08-01T05:57:10;99110.00;;;18.64;100.00
3132;BME280;62090;52.330;9.104;2023-08-01T05:59:40;99125.09;;;18.76;100.00
3132;BME280;62090;52.330;9.104;2023-08-01T06:02:10;99125.16;;;18.73;100.00
3132;BME280;62090;52.330;9.104;2023-08-01T06:04:40;99133.22;;;18.88;100.00
3132;BME280;62090;52.330;9.104;2023-08-01T06:07:12;99112.66;;;18.87;100.00
3132;BME280;62090;52.330;9.104;2023-08-01T06:09:42;99130.81;;;18.84;100.00
3132;BME280;62090;52.330;9.104;2023-08-01T06:12:12;99122.50;;;18.76;100.00
3132;BME280;62090;52.330;9.104;2023-08-01T06:14:42;99129.13;;;18.83;100.00
3132;BME280;62090;52.330;9.104;2023-08-01T06:17:12;99136.75;;;18.86;100.00
3132;BME280;62090;52.330;9.104;2023-08-01T06:19:42;99070.09;;;18.49;100.00
3132;BME280;62090;52.330;9.104;2023-08-01T06:22:15;99101.06;;;18.74;100.00
3132;BME280;62090;52.330;9.104;2023-08-01T06:24:45;99129.38;;;19.00;100.00
3132;BME280;62090;52.330;9.104;2023-08-01T06:27:15;99137.91;;;19.02;100.00
3132;BME280;62090;52.330;9.104;2023-08-01T06:29:45;99133.38;;;19.09;100.00
3132;BME280;62090;52.330;9.104;2023-08-01T06:32:14;99137.56;;;19.11;100.00
3132;BME280;62090;52.330;9.104;2023-08-01T06:34:44;99133.47;;;19.06;100.00
3132;BME280;62090;52.330;9.104;2023-08-01T06:37:17;99145.50;;;19.07;100.00
3132;BME280;62090;52.330;9.104;2023-08-01T06:39:47;99129.69;;;18.91;100.00
3132;BME280;62090;52.330;9.104;2023-08-01T06:42:17;99138.16;;;18.94;100.00
3132;BME280;62090;52.330;9.104;2023-08-01T06:44:46;99117.13;;;18.82;100.00
3132;BME280;62090;52.330;9.104;2023-08-01T06:47:16;99159.25;;;19.07;100.00
3132;BME280;62090;52.330;9.104;2023-08-01T06:49:46;99162.16;;;18.98;100.00
3132;BME280;62090;52.330;9.104;2023-08-01T06:52:19;99159.41;;;19.03;100.00
3132;BME280;62090;52.330;9.104;2023-08-01T06:54:49;99157.72;;;19.02;100.00
3132;BME280;62090;52.330;9.104;2023-08-01T06:57:18;99146.88;;;18.92;100.00
3132;BME280;62090;52.330;9.104;2023-08-01T06:59:48;99146.94;;;18.90;100.00
3132;BME280;62090;52.330;9.104;2023-08-01T07:02:18;99162.03;;;19.01;100.00
3132;BME280;62090;52.330;9.104;2023-08-01T07:04:49;99152.13;;;19.14;100.00
3132;BME280;62090;52.330;9.104;2023-08-01T07:07:21;99137.19;;;19.22;100.00
3132;BME280;62090;52.330;9.104;2023-08-01T07:09:51;99165.84;;;19.39;100.00
3132;BME280;62090;52.330;9.104;2023-08-01T07:12:21;99147.09;;;19.34;100.00
3132;BME280;62090;52.330;9.104;2023-08-01T07:14:51;99153.44;;;19.49;100.00
3132;BME280;62090;52.330;9.104;2023-08-01T07:17:21;99166.69;;;19.63;100.00
3132;BME280;62090;52.330;9.104;2023-08-01T07:19:51;99171.63;;;19.69;100.00
3132;BME280;62090;52.330;9.104;2023-08-01T07:22:24;99162.75;;;19.76;100.00
3132;BME280;62090;52.330;9.104;2023-08-01T07:24:54;99166.25;;;19.97;100.00
3132;BME280;62090;52.330;9.104;2023-08-01T07:27:24;99176.34;;;20.03;100.00
3132;BME280;62090;52.330;9.104;2023-08-01T07:29:55;99176.22;;;20.28;100.00
3132;BME280;62090;52.330;9.104;2023-08-01T07:32:25;99174.19;;;20.36;100.00
3132;BME280;62090;52.330;9.104;2023-08-01T07:35:00;99164.97;;;20.29;100.00
3132;BME280;62090;52.330;9.104;2023-08-01T07:37:33;99181.53;;;20.24;100.00
3132;BME280;62090;52.330;9.104;2023-08-01T07:40:05;99157.81;;;20.13;100.00
3132;BME280;62090;52.330;9.104;2023-08-01T07:42:35;99177.25;;;20.23;100.00
3132;BME280;62090;52.330;9.104;2023-08-01T07:45:06;99206.47;;;20.25;100.00
3132;BME280;62090;52.330;9.104;2023-08-01T07:47:36;99200.06;;;20.14;100.00
3132;BME280;62090;52.330;9.104;2023-08-01T07:50:07;99197.53;;;20.34;100.00
3132;BME280;62090;52.330;9.104;2023-08-01T07:52:40;99193.06;;;20.38;100.00
3132;BME280;62090;52.330;9.104;2023-08-01T07:55:10;99199.91;;;20.17;100.00
3132;BME280;62090;52.330;9.104;2023-08-01T07:57:40;99179.22;;;19.95;100.00
3132;BME280;62090;52.330;9.104;2023-08-01T08:00:11;99195.72;;;19.93;100.00
3132;BME280;62090;52.330;9.104;2023-08-01T08:02:41;99206.03;;;19.71;100.00
3132;BME280;62090;52.330;9.104;2023-08-01T08:05:12;99207.16;;;19.39;100.00
3132;BME280;62090;52.330;9.104;2023-08-01T08:07:44;99194.91;;;19.44;100.00
3132;BME280;62090;52.330;9.104;2023-08-01T08:10:14;99166.56;;;19.42;100.00
3132;BME280;62090;52.330;9.104;2023-08-01T08:12:44;99158.47;;;19.52;100.00
3132;BME280;62090;52.330;9.104;2023-08-01T08:15:14;99199.00;;;19.96;100.00
3132;BME280;62090;52.330;9.104;2023-08-01T08:17:44;99176.09;;;19.87;100.00
3132;BME280;62090;52.330;9.104;2023-08-01T08:20:14;99194.72;;;19.95;100.00
3132;BME280;62090;52.330;9.104;2023-08-01T08:22:47;99201.47;;;20.21;100.00
3132;BME280;62090;52.330;9.104;2023-08-01T08:25:16;99192.97;;;20.41;100.00
3132;BME280;62090;52.330;9.104;2023-08-01T08:27:46;99198.88;;;20.64;100.00
3132;BME280;62090;52.330;9.104;2023-08-01T08:30:18;99199.97;;;20.79;100.00
3132;BME280;62090;52.330;9.104;2023-08-01T08:32:48;99187.94;;;20.78;100.00
3132;BME280;62090;52.330;9.104;2023-08-01T08:35:18;99174.81;;;20.83;100.00
3132;BME280;62090;52.330;9.104;2023-08-01T08:37:50;99188.81;;;20.99;100.00
3132;BME280;62090;52.330;9.104;2023-08-01T08:40:20;99171.50;;;20.99;100.00
3132;BME280;62090;52.330;9.104;2023-08-01T08:42:52;99184.53;;;20.98;100.00
3132;BME280;62090;52.330;9.104;2023-08-01T08:45:23;99171.78;;;20.93;99.83
3132;BME280;62090;52.330;9.104;2023-08-01T08:47:55;99168.53;;;20.88;100.00
3132;BME280;62090;52.330;9.104;2023-08-01T08:50:26;99185.91;;;21.05;100.00
3132;BME280;62090;52.330;9.104;2023-08-01T08:52:59;99177.97;;;21.10;99.69
3132;BME280;62090;52.330;9.104;2023-08-01T08:55:31;99185.09;;;21.25;98.39
3132;BME280;62090;52.330;9.104;2023-08-01T08:58:01;99190.78;;;21.33;98.05
3132;BME280;62090;52.330;9.104;2023-08-01T09:00:31;99183.16;;;21.48;99.68
3132;BME280;62090;52.330;9.104;2023-08-01T09:03:01;99159.06;;;21.28;97.68
3132;BME280;62090;52.330;9.104;2023-08-01T09:05:34;99190.38;;;21.42;98.46
3132;BME280;62090;52.330;9.104;2023-08-01T09:08:18;99163.00;;;21.55;95.96
3132;BME280;62090;52.330;9.104;2023-08-01T09:10:48;99191.78;;;21.86;95.39
3132;BME280;62090;52.330;9.104;2023-08-01T09:13:18;99169.91;;;21.92;93.98
3132;BME280;62090;52.330;9.104;2023-08-01T09:15:49;99189.97;;;21.88;90.86
3132;BME280;62090;52.330;9.104;2023-08-01T09:18:19;99182.88;;;21.73;91.09
3132;BME280;62090;52.330;9.104;2023-08-01T09:20:50;99191.88;;;21.66;91.19
3132;BME280;62090;52.330;9.104;2023-08-01T09:23:24;99170.47;;;21.42;90.52
3132;BME280;62090;52.330;9.104;2023-08-01T09:25:54;99189.81;;;21.54;90.04
3132;BME280;62090;52.330;9.104;2023-08-01T09:28:26;99197.28;;;21.62;89.30
3132;BME280;62090;52.330;9.104;2023-08-01T09:30:57;99201.59;;;21.61;86.98
3132;BME280;62090;52.330;9.104;2023-08-01T09:33:37;99189.63;;;21.77;86.61
3132;BME280;62090;52.330;9.104;2023-08-01T09:36:08;99183.78;;;21.91;87.09
3132;BME280;62090;52.330;9.104;2023-08-01T09:38:40;99196.84;;;22.08;86.74
3132;BME280;62090;52.330;9.104;2023-08-01T09:41:16;99184.72;;;22.09;85.46
3132;BME280;62090;52.330;9.104;2023-08-01T09:43:47;99172.66;;;21.70;83.86
3132;BME280;62090;52.330;9.104;2023-08-01T09:46:16;99183.78;;;21.91;85.91
3132;BME280;62090;52.330;9.104;2023-08-01T09:48:46;99184.84;;;21.87;84.52
3132;BME280;62090;52.330;9.104;2023-08-01T09:51:17;99159.13;;;21.64;83.73
3132;BME280;62090;52.330;9.104;2023-08-01T09:53:51;99182.97;;;22.09;84.81
3132;BME280;62090;52.330;9.104;2023-08-01T09:56:23;99179.59;;;22.07;85.33
3132;BME280;62090;52.330;9.104;2023-08-01T09:58:55;99189.19;;;22.05;80.96
3132;BME280;62090;52.330;9.104;2023-08-01T10:01:25;99183.81;;;22.27;81.34
3132;BME280;62090;52.330;9.104;2023-08-01T10:03:56;99186.91;;;22.35;81.67
3132;BME280;62090;52.330;9.104;2023-08-01T10:06:29;99187.53;;;22.40;80.56
3132;BME280;62090;52.330;9.104;2023-08-01T10:09:04;99196.50;;;22.33;81.33
3132;BME280;62090;52.330;9.104;2023-08-01T10:11:34;99174.28;;;22.27;80.30
3132;BME280;62090;52.330;9.104;2023-08-01T10:14:06;99181.16;;;22.28;79.03
3132;BME280;62090;52.330;9.104;2023-08-01T10:16:36;99176.44;;;22.01;81.59
3132;BME280;62090;52.330;9.104;2023-08-01T10:19:07;99143.41;;;21.85;82.87
3132;BME280;62090;52.330;9.104;2023-08-01T10:21:39;99199.16;;;22.31;80.32
3132;BME280;62090;52.330;9.104;2023-08-01T10:24:13;99181.06;;;22.13;80.08
3132;BME280;62090;52.330;9.104;2023-08-01T10:26:44;99202.66;;;22.13;81.01
3132;BME280;62090;52.330;9.104;2023-08-01T10:29:15;99190.13;;;22.04;77.68
3132;BME280;62090;52.330;9.104;2023-08-01T10:31:51;99206.16;;;21.94;79.12
3132;BME280;62090;52.330;9.104;2023-08-01T10:34:22;99203.00;;;21.87;82.15
3132;BME280;62090;52.330;9.104;2023-08-01T10:36:55;99206.03;;;21.78;82.24
3132;BME280;62090;52.330;9.104;2023-08-01T10:39:28;99144.97;;;21.33;84.06
3132;BME280;62090;52.330;9.104;2023-08-01T10:41:59;99196.97;;;21.86;83.64
3132;BME280;62090;52.330;9.104;2023-08-01T10:44:29;99204.47;;;22.11;81.40
3132;BME280;62090;52.330;9.104;2023-08-01T10:47:02;99143.66;;;21.62;81.54
3132;BME280;62090;52.330;9.104;2023-08-01T10:49:35;99206.16;;;21.75;81.98
3132;BME280;62090;52.330;9.104;2023-08-01T10:52:16;99176.34;;;21.27;79.73
3132;BME280;62090;52.330;9.104;2023-08-01T10:54:56;99177.66;;;21.17;83.97
3132;BME280;62090;52.330;9.104;2023-08-01T10:57:27;99195.38;;;21.06;84.18
3132;BME280;62090;52.330;9.104;2023-08-01T10:59:58;99214.09;;;21.13;84.73
3132;BME280;62090;52.330;9.104;2023-08-01T11:02:30;99217.50;;;21.15;84.95
3132;BME280;62090;52.330;9.104;2023-08-01T11:05:02;99218.00;;;21.02;86.50
3132;BME280;62090;52.330;9.104;2023-08-01T11:07:33;99220.00;;;20.96;88.58
3132;BME280;62090;52.330;9.104;2023-08-01T11:10:09;99226.81;;;20.98;91.12
3132;BME280;62090;52.330;9.104;2023-08-01T11:12:41;99217.84;;;20.85;91.17
3132;BME280;62090;52.330;9.104;2023-08-01T11:15:12;99216.34;;;20.80;92.99
3132;BME280;62090;52.330;9.104;2023-08-01T11:17:46;99219.78;;;21.00;92.35
3132;BME280;62090;52.330;9.104;2023-08-01T11:20:17;99227.72;;;21.18;89.70
3132;BME280;62090;52.330;9.104;2023-08-01T11:22:53;99226.94;;;21.36;89.85
3132;BME280;62090;52.330;9.104;2023-08-01T11:25:34;99225.75;;;21.43;89.12
3132;BME280;62090;52.330;9.104;2023-08-01T11:28:06;99227.41;;;21.25;90.21
3132;BME280;62090;52.330;9.104;2023-08-01T11:30:37;99229.75;;;21.50;89.63
3132;BME280;62090;52.330;9.104;2023-08-01T11:33:13;99226.00;;;21.57;89.27
3132;BME280;62090;52.330;9.104;2023-08-01T11:35:44;99219.25;;;21.53;90.19
3132;BME280;62090;52.330;9.104;2023-08-01T11:38:14;99200.25;;;21.53;90.26
3132;BME280;62090;52.330;9.104;2023-08-01T11:40:47;99236.09;;;22.01;90.24
3132;BME280;62090;52.330;9.104;2023-08-01T11:43:18;99236.03;;;22.02;88.72
3132;BME280;62090;52.330;9.104;2023-08-01T11:45:49;99246.47;;;22.01;87.94
3132;BME280;62090;52.330;9.104;2023-08-01T11:48:20;99241.81;;;21.70;89.00
3132;BME280;62090;52.330;9.104;2023-08-01T11:50:56;99229.47;;;21.17;91.88
3132;BME280;62090;52.330;9.104;2023-08-01T11:53:27;99267.00;;;20.87;94.58
3132;BME280;62090;52.330;9.104;2023-08-01T11:56:00;99285.38;;;20.59;92.20
3132;BME280;62090;52.330;9.104;2023-08-01T11:58:31;99272.28;;;20.18;92.16
3132;BME280;62090;52.330;9.104;2023-08-01T12:01:03;99283.44;;;19.97;93.14
3132;BME280;62090;52.330;9.104;2023-08-01T12:03:42;99284.91;;;19.81;94.48
3132;BME280;62090;52.330;9.104;2023-08-01T12:06:13;99221.31;;;19.29;97.43
3132;BME280;62090;52.330;9.104;2023-08-01T12:08:44;99277.41;;;19.73;100.00
3132;BME280;62090;52.330;9.104;2023-08-01T12:11:21;99275.47;;;19.80;99.46
3132;BME280;62090;52.330;9.104;2023-08-01T12:14:02;99272.44;;;19.92;99.63
3132;BME280;62090;52.330;9.104;2023-08-01T12:16:32;99285.91;;;20.00;99.36
3132;BME280;62090;52.330;9.104;2023-08-01T12:19:02;99277.06;;;20.06;100.00
3132;BME280;62090;52.330;9.104;2023-08-01T12:21:33;99211.72;;;19.79;100.00
3132;BME280;62090;52.330;9.104;2023-08-01T12:24:04;99287.44;;;20.28;99.60
3132;BME280;62090;52.330;9.104;2023-08-01T12:26:36;99256.47;;;20.26;100.00
3132;BME280;62090;52.330;9.104;2023-08-01T12:29:07;99285.84;;;20.47;99.95
3132;BME280;62090;52.330;9.104;2023-08-01T12:31:37;99300.97;;;20.57;99.62
3132;BME280;62090;52.330;9.104;2023-08-01T12:34:07;99293.81;;;20.64;99.68
3132;BME280;62090;52.330;9.104;2023-08-01T12:36:37;99296.22;;;20.69;100.00
3132;BME280;62090;52.330;9.104;2023-08-01T12:39:07;99303.06;;;20.70;100.00
3132;BME280;62090;52.330;9.104;2023-08-01T12:41:41;99302.56;;;20.61;100.00
3132;BME280;62090;52.330;9.104;2023-08-01T12:44:11;99304.28;;;20.61;100.00
3132;BME280;62090;52.330;9.104;2023-08-01T12:46:43;99302.19;;;20.49;100.00
3132;BME280;62090;52.330;9.104;2023-08-01T12:49:13;99309.34;;;20.42;100.00
3132;BME280;62090;52.330;9.104;2023-08-01T12:51:43;99326.91;;;20.34;100.00
3132;BME280;62090;52.330;9.104;2023-08-01T12:54:15;99340.63;;;20.13;100.00
3132;BME280;62090;52.330;9.104;2023-08-01T12:56:49;99341.00;;;19.54;100.00
3132;BME280;62090;52.330;9.104;2023-08-01T12:59:19;99322.72;;;19.34;100.00
3132;BME280;62090;52.330;9.104;2023-08-01T13:01:49;99332.94;;;19.12;100.00
3132;BME280;62090;52.330;9.104;2023-08-01T13:04:19;99294.59;;;19.00;100.00
3132;BME280;62090;52.330;9.104;2023-08-01T13:06:49;99313.38;;;19.30;100.00
3132;BME280;62090;52.330;9.104;2023-08-01T13:09:19;99321.06;;;19.58;100.00
3132;BME280;62090;52.330;9.104;2023-08-01T13:11:51;99305.38;;;19.87;100.00
3132;BME280;62090;52.330;9.104;2023-08-01T13:14:24;99286.47;;;20.08;100.00
3132;BME280;62090;52.330;9.104;2023-08-01T13:16:54;99301.53;;;20.44;100.00
3132;BME280;62090;52.330;9.104;2023-08-01T13:19:25;99304.06;;;20.67;100.00
3132;BME280;62090;52.330;9.104;2023-08-01T13:21:55;99309.56;;;20.80;100.00